Terminal Aerodrome Forecast
Issued by NWS Austin/San Antonio, TX

Home | Current Version | Previous Version | Text Only | Print | Product List | Glossary On
Versions: 1 2 3 4 5 6 7 8 9 10 11 12 13 14 15 16
000
FTUS44 KEWX 242300
TAFSAT
TAF
KSAT 242326Z 2500/2606 13010KT P6SM SCT070 SCT250
     FM250800 19004KT P6SM FEW015
     FM251600 16007KT P6SM SCT050
     FM252300 15012KT P6SM SCT060=

USA.gov is the U.S. government's official web portal to all federal, state and local government web resources and services.